Time;durP1;ratioP1;P1;durP2;ratioP2;P2;SDS_P1;SDS_P2;PMS_P1;PMS_P2;Temp;Humidity;BMP_temperature;BMP_pressure;BME280_temperature;BME280_humidity;BME280_pressure;Samples;Min_cycle;Max_cycle;Signal;HPM_P1;HPM_P2
2022/05/22 00:00:50;;;;;;;4.07;3.87;;;17.70;99.90;;;;;;4971081;28;20279;-51
2022/05/22 00:03:17;;;;;;;3.60;3.47;;;17.70;99.90;;;;;;4972927;28;20252;-50
2022/05/22 00:05:44;;;;;;;4.20;3.40;;;17.60;99.90;;;;;;4973027;28;20255;-50
2022/05/22 00:08:11;;;;;;;10.17;3.50;;;17.60;99.90;;;;;;4971878;28;20259;-51
2022/05/22 00:10:38;;;;;;;3.67;3.40;;;17.50;99.90;;;;;;4970175;28;20836;-50
2022/05/22 00:13:05;;;;;;;3.47;3.17;;;17.50;99.90;;;;;;4972705;28;20204;-50
2022/05/22 00:15:33;;;;;;;3.73;3.37;;;17.40;99.90;;;;;;4970915;28;20304;-50
2022/05/22 00:18:01;;;;;;;3.20;2.90;;;17.30;99.90;;;;;;4973183;28;20211;-50
2022/05/22 00:20:28;;;;;;;3.03;2.90;;;17.30;99.90;;;;;;4971888;28;20253;-50
2022/05/22 00:22:55;;;;;;;3.90;3.42;;;17.10;99.90;;;;;;4968933;28;20516;-51
2022/05/22 00:25:22;;;;;;;6.20;3.10;;;17.30;99.90;;;;;;4970739;28;20229;-50
2022/05/22 00:27:49;;;;;;;3.20;2.97;;;17.30;99.90;;;;;;4973140;28;20201;-50
2022/05/22 00:30:16;;;;;;;4.53;2.93;;;17.20;99.90;;;;;;4972446;28;20247;-50
2022/05/22 00:32:43;;;;;;;3.03;2.90;;;17.20;99.90;;;;;;4973277;28;20205;-50
2022/05/22 00:35:12;;;;;;;3.53;2.90;;;17.30;99.90;;;;;;4968306;28;20702;-50
2022/05/22 00:37:39;;;;;;;3.33;2.93;;;17.20;99.90;;;;;;4971735;28;20255;-51
2022/05/22 00:40:07;;;;;;;2.93;2.40;;;17.20;99.90;;;;;;4972853;28;20298;-50
2022/05/22 00:42:34;;;;;;;2.33;2.07;;;17.10;99.90;;;;;;4970626;28;20204;-50
2022/05/22 00:45:01;;;;;;;2.17;2.07;;;17.10;99.90;;;;;;4971292;28;20296;-51
2022/05/22 00:47:28;;;;;;;2.50;2.30;;;17.10;99.90;;;;;;4971111;28;20209;-51
2022/05/22 00:50:00;;;;;;;1.80;1.70;;;17.10;99.90;;;;;;4970263;28;20260;-50
2022/05/22 00:52:34;;;;;;;2.47;2.37;;;17.10;99.90;;;;;;4972443;28;20204;-50
2022/05/22 00:55:06;;;;;;;2.37;2.10;;;17.10;99.90;;;;;;4973217;28;20219;-51
2022/05/22 00:57:36;;;;;;;4.20;1.90;;;17.10;99.90;;;;;;4972328;28;20208;-51
2022/05/22 01:00:08;;;;;;;2.23;1.80;;;17.00;99.90;;;;;;4965904;28;20291;-50
2022/05/22 01:05:16;;;;;;;2.70;1.97;;;17.20;99.90;;;;;;4970680;28;20220;-51
2022/05/22 01:07:45;;;;;;;2.70;2.10;;;17.20;99.90;;;;;;4969553;28;20215;-50
2022/05/22 01:10:12;;;;;;;3.23;2.10;;;17.10;99.90;;;;;;4966832;28;20575;-50
2022/05/22 01:12:41;;;;;;;2.13;2.03;;;17.10;99.90;;;;;;4971567;28;20204;-51
2022/05/22 01:15:09;;;;;;;4.07;2.47;;;17.10;99.90;;;;;;4970133;28;20244;-50
2022/05/22 01:17:40;;;;;;;2.27;2.17;;;17.00;99.90;;;;;;4972380;28;20213;-51
2022/05/22 01:20:08;;;;;;;2.53;2.40;;;16.90;99.90;;;;;;4968740;28;20220;-51
2022/05/22 01:22:36;;;;;;;2.67;2.47;;;16.80;99.90;;;;;;4969863;28;20212;-50
2022/05/22 01:25:05;;;;;;;2.73;2.53;;;16.80;99.90;;;;;;4971795;28;20645;-51
2022/05/22 01:27:33;;;;;;;3.63;2.97;;;16.80;99.90;;;;;;4964579;28;20205;-51
2022/05/22 01:30:11;;;;;;;2.60;2.50;;;16.90;99.90;;;;;;4971892;28;20346;-50
2022/05/22 01:32:40;;;;;;;2.97;2.77;;;16.80;99.90;;;;;;4970617;28;20204;-50
2022/05/22 01:35:08;;;;;;;6.53;2.77;;;16.70;99.90;;;;;;4969671;28;20271;-50
2022/05/22 01:37:37;;;;;;;2.70;2.60;;;16.80;99.90;;;;;;4971379;28;20205;-50
2022/05/22 01:40:05;;;;;;;4.17;2.67;;;16.70;99.90;;;;;;4970564;28;20216;-50
2022/05/22 01:42:32;;;;;;;7.17;3.87;;;16.80;99.90;;;;;;4971239;28;20276;-50
2022/05/22 01:44:59;;;;;;;2.80;2.30;;;16.70;99.90;;;;;;4970719;28;20290;-50
2022/05/22 01:47:26;;;;;;;2.53;2.37;;;16.70;99.90;;;;;;4971217;28;20731;-50
2022/05/22 01:49:53;;;;;;;2.90;2.70;;;16.60;99.90;;;;;;4971268;28;20255;-50
2022/05/22 01:52:20;;;;;;;2.30;2.20;;;16.70;99.90;;;;;;4971612;28;20196;-51
2022/05/22 01:54:48;;;;;;;2.10;1.97;;;16.70;99.90;;;;;;4970531;28;20693;-50
2022/05/22 01:57:15;;;;;;;4.37;2.33;;;16.70;99.90;;;;;;4971844;28;20626;-50
2022/05/22 01:59:42;;;;;;;1.83;1.73;;;16.70;99.90;;;;;;4972208;28;20634;-50
2022/05/22 02:02:09;;;;;;;2.33;2.10;;;16.70;99.90;;;;;;4972250;28;20208;-50
2022/05/22 02:04:36;;;;;;;2.27;2.17;;;16.70;99.90;;;;;;4972280;28;20231;-51
2022/05/22 02:09:50;;;;;;;4.53;2.33;;;16.60;99.90;;;;;;4972188;28;20694;-50
2022/05/22 02:12:17;;;;;;;1.40;1.40;;;16.70;99.90;;;;;;4972057;28;20686;-51
2022/05/22 02:14:44;;;;;;;1.87;1.83;;;16.60;99.90;;;;;;4972221;28;20224;-50
2022/05/22 02:17:11;;;;;;;1.93;1.83;;;16.60;99.90;;;;;;4971553;28;20251;-51
2022/05/22 02:19:38;;;;;;;1.53;1.53;;;16.50;99.90;;;;;;4971249;28;20279;-50
2022/05/22 02:22:05;;;;;;;2.80;1.53;;;16.50;99.90;;;;;;4972040;28;20196;-51
2022/05/22 02:24:32;;;;;;;1.67;1.57;;;16.40;99.90;;;;;;4972307;28;20240;-50
2022/05/22 02:27:05;;;;;;;1.30;1.30;;;16.50;99.90;;;;;;4969254;28;20258;-51
2022/05/22 02:29:32;;;;;;;1.90;1.80;;;16.40;99.90;;;;;;4961441;28;20552;-51
2022/05/22 02:31:59;;;;;;;1.73;1.63;;;16.40;99.90;;;;;;4970351;28;20239;-50
2022/05/22 02:34:26;;;;;;;4.17;1.50;;;16.40;99.90;;;;;;4966535;28;20649;-51
2022/05/22 02:36:56;;;;;;;1.87;1.77;;;16.30;99.90;;;;;;4969665;28;20624;-51
2022/05/22 02:39:23;;;;;;;2.03;1.30;;;16.30;99.90;;;;;;4974988;28;20274;-51
2022/05/22 02:41:53;;;;;;;1.63;1.53;;;16.30;99.90;;;;;;4972546;28;20204;-51
2022/05/22 02:44:23;;;;;;;1.40;1.30;;;16.30;99.90;;;;;;4972194;28;20299;-51
2022/05/22 02:46:50;;;;;;;1.73;1.57;;;16.20;99.90;;;;;;4974861;28;20200;-51
2022/05/22 02:49:16;;;;;;;3.10;1.70;;;16.20;99.90;;;;;;4975093;28;20200;-50
2022/05/22 02:51:43;;;;;;;2.20;2.00;;;16.20;99.90;;;;;;4974196;28;20205;-50
2022/05/22 02:54:10;;;;;;;2.20;2.00;;;16.20;99.90;;;;;;4972863;28;20267;-50
2022/05/22 02:56:37;;;;;;;3.60;2.30;;;16.10;99.90;;;;;;4972854;28;20693;-50
2022/05/22 02:59:04;;;;;;;4.93;1.70;;;16.10;99.90;;;;;;4975333;28;20264;-50
2022/05/22 03:01:33;;;;;;;2.13;2.00;;;16.00;99.90;;;;;;4975107;28;20299;-50
2022/05/22 03:04:00;;;;;;;1.70;1.70;;;16.00;99.90;;;;;;4974956;28;20251;-50
2022/05/22 03:09:17;;;;;;;1.87;1.63;;;16.10;99.90;;;;;;4963612;28;20231;-50
2022/05/22 03:11:44;;;;;;;1.97;1.80;;;16.00;99.90;;;;;;4970896;28;20231;-50
2022/05/22 03:14:11;;;;;;;1.87;1.87;;;15.90;99.90;;;;;;4974070;28;20224;-50
2022/05/22 03:16:40;;;;;;;2.20;1.50;;;15.90;99.90;;;;;;4974443;28;20205;-51
2022/05/22 03:19:07;;;;;;;1.67;1.47;;;15.90;99.90;;;;;;4973934;28;20200;-50
2022/05/22 03:21:33;;;;;;;2.37;1.67;;;15.80;99.90;;;;;;4972926;28;20668;-51
2022/05/22 03:24:00;;;;;;;2.10;2.00;;;15.80;99.90;;;;;;4973058;28;20253;-50
2022/05/22 03:26:27;;;;;;;1.80;1.70;;;15.70;99.90;;;;;;4973782;28;20205;-51
2022/05/22 03:28:54;;;;;;;2.83;2.63;;;15.80;99.90;;;;;;4974074;28;20200;-50
2022/05/22 03:31:21;;;;;;;2.67;2.57;;;15.80;99.90;;;;;;4973602;28;20726;-50
2022/05/22 03:33:50;;;;;;;2.00;1.90;;;15.80;99.90;;;;;;4973770;28;20228;-50
2022/05/22 03:36:18;;;;;;;3.83;3.17;;;15.80;99.90;;;;;;4972931;28;20211;-51
2022/05/22 03:38:45;;;;;;;3.27;2.57;;;15.80;99.90;;;;;;4974038;28;20252;-51
2022/05/22 03:41:12;;;;;;;3.43;2.27;;;15.80;99.90;;;;;;4973294;28;20220;-51
2022/05/22 03:43:38;;;;;;;2.37;2.03;;;15.80;99.90;;;;;;4974084;28;20272;-50
2022/05/22 03:46:06;;;;;;;3.57;2.20;;;15.80;99.90;;;;;;4972351;28;20200;-50
2022/05/22 03:48:33;;;;;;;2.17;2.07;;;15.80;99.90;;;;;;4972154;28;20255;-50
2022/05/22 03:51:01;;;;;;;2.27;2.13;;;15.80;99.90;;;;;;4974486;28;20196;-50
2022/05/22 03:53:28;;;;;;;2.10;2.00;;;15.80;99.90;;;;;;4973599;28;20209;-51
2022/05/22 03:55:55;;;;;;;2.60;2.40;;;15.90;99.90;;;;;;4971408;28;20209;-50
2022/05/22 03:58:22;;;;;;;1.93;1.83;;;15.80;99.90;;;;;;4973673;28;20263;-51
2022/05/22 04:00:49;;;;;;;2.80;2.57;;;15.80;99.90;;;;;;4972093;28;20223;-51
2022/05/22 04:03:16;;;;;;;3.07;2.17;;;15.80;99.90;;;;;;4973586;28;20201;-50
2022/05/22 04:05:43;;;;;;;2.80;2.70;;;15.90;99.90;;;;;;4973164;28;20337;-51
2022/05/22 04:08:11;;;;;;;2.20;2.10;;;15.80;99.90;;;;;;4971518;28;20559;-51
2022/05/22 04:10:39;;;;;;;2.00;1.90;;;15.80;99.90;;;;;;4971596;28;20207;-50
2022/05/22 04:13:06;;;;;;;1.60;1.47;;;15.80;99.90;;;;;;4965963;28;20212;-50
2022/05/22 04:15:33;;;;;;;2.57;2.03;;;15.80;99.90;;;;;;4956006;28;20755;-50
2022/05/22 04:18:00;;;;;;;3.73;2.20;;;15.90;99.90;;;;;;4964155;28;20204;-50
2022/05/22 04:20:28;;;;;;;2.37;2.00;;;15.90;99.90;;;;;;4963100;28;20216;-50
2022/05/22 04:25:42;;;;;;;2.03;1.80;;;16.00;99.90;;;;;;4965450;28;20606;-51
2022/05/22 04:28:10;;;;;;;2.37;1.70;;;16.00;99.90;;;;;;4968521;28;20204;-50
2022/05/22 04:30:36;;;;;;;1.87;1.70;;;16.00;99.90;;;;;;4962811;28;20212;-50
2022/05/22 04:33:03;;;;;;;1.97;1.80;;;16.20;99.90;;;;;;4962838;28;20201;-51
2022/05/22 04:35:31;;;;;;;1.83;1.73;;;16.30;99.90;;;;;;4957073;28;20229;-51
2022/05/22 04:38:02;;;;;;;1.33;1.33;;;16.40;99.90;;;;;;4965459;28;20668;-51
2022/05/22 04:40:29;;;;;;;2.53;2.10;;;16.50;99.90;;;;;;4963126;28;20217;-51
2022/05/22 04:42:57;;;;;;;1.90;1.50;;;16.60;99.90;;;;;;4964539;28;20205;-51
2022/05/22 04:45:24;;;;;;;4.67;2.10;;;16.70;99.90;;;;;;4963634;28;20292;-51
2022/05/22 04:47:51;;;;;;;2.17;1.77;;;16.90;99.90;;;;;;4956228;28;20264;-51
2022/05/22 04:50:18;;;;;;;1.87;1.50;;;16.90;99.90;;;;;;4963165;28;20197;-51
2022/05/22 04:52:45;;;;;;;2.13;2.00;;;17.00;99.90;;;;;;4965064;28;20205;-51
2022/05/22 04:55:12;;;;;;;2.63;1.90;;;17.00;99.90;;;;;;4967361;28;20221;-51
2022/05/22 04:57:39;;;;;;;2.83;1.97;;;17.20;99.90;;;;;;4964076;28;20255;-51
2022/05/22 05:00:11;;;;;;;4.50;1.80;;;17.50;99.90;;;;;;4963445;28;20201;-51
2022/05/22 05:02:39;;;;;;;2.40;1.97;;;18.00;99.90;;;;;;4962894;28;20272;-51
2022/05/22 05:05:08;;;;;;;2.30;1.50;;;18.40;99.90;;;;;;4960765;28;20268;-51
2022/05/22 05:07:36;;;;;;;2.10;2.00;;;18.80;99.90;;;;;;4963014;28;20269;-51
2022/05/22 05:10:04;;;;;;;2.50;1.73;;;18.50;99.90;;;;;;4961235;28;20197;-51
2022/05/22 05:12:31;;;;;;;2.40;2.03;;;18.30;99.90;;;;;;4960682;28;20205;-51
2022/05/22 05:14:57;;;;;;;2.73;2.43;;;18.10;99.90;;;;;;4967667;28;20276;-52
2022/05/22 05:17:26;;;;;;;2.67;2.57;;;18.00;99.90;;;;;;4971213;28;20659;-51
2022/05/22 05:19:53;;;;;;;2.10;2.00;;;18.40;99.90;;;;;;4971712;28;20278;-51
2022/05/22 05:22:20;;;;;;;2.50;2.30;;;18.80;99.90;;;;;;4971437;28;20351;-51
2022/05/22 05:24:46;;;;;;;1.97;1.90;;;19.30;99.90;;;;;;4972914;28;20217;-51
2022/05/22 05:27:13;;;;;;;2.13;2.03;;;19.90;99.90;;;;;;4972378;28;20659;-51
2022/05/22 05:29:40;;;;;;;4.70;2.33;;;20.00;99.90;;;;;;4972733;28;20208;-51
2022/05/22 05:32:08;;;;;;;2.00;1.80;;;20.10;99.90;;;;;;4968771;28;20197;-52
2022/05/22 05:34:36;;;;;;;1.77;1.67;;;20.20;99.90;;;;;;4971457;28;20283;-51
2022/05/22 05:37:04;;;;;;;2.63;2.53;;;20.50;99.90;;;;;;4972010;28;20693;-51
2022/05/22 05:39:32;;;;;;;3.13;2.20;;;20.20;99.90;;;;;;4971472;28;20212;-51
2022/05/22 05:42:00;;;;;;;3.53;1.87;;;20.60;99.90;;;;;;4971058;28;20269;-50
2022/05/22 05:44:27;;;;;;;2.30;2.20;;;20.30;99.90;;;;;;4992935;23;20237;-46
2022/05/22 05:46:54;;;;;;;2.73;1.90;;;20.20;99.90;;;;;;4967746;28;20228;-46
2022/05/22 05:49:21;;;;;;;4.17;1.80;;;20.40;99.90;;;;;;4972094;28;20201;-46
2022/05/22 05:51:53;;;;;;;2.37;1.57;;;20.40;99.90;;;;;;4971670;28;20251;-46
2022/05/22 05:54:21;;;;;;;1.60;1.53;;;20.50;99.90;;;;;;4973008;28;20589;-46
2022/05/22 05:56:49;;;;;;;2.73;1.70;;;20.30;99.90;;;;;;4972835;28;20682;-46
2022/05/22 05:59:16;;;;;;;2.53;1.90;;;20.10;99.90;;;;;;4972082;28;20226;-45
2022/05/22 06:01:43;;;;;;;2.30;1.47;;;20.40;99.90;;;;;;4975003;28;20224;-46
2022/05/22 06:04:10;;;;;;;3.03;1.77;;;21.00;99.90;;;;;;4972853;28;20196;-46
2022/05/22 06:06:37;;;;;;;1.33;1.23;;;21.60;99.90;;;;;;4971952;28;20212;-46
2022/05/22 06:09:05;;;;;;;4.17;1.83;;;22.60;99.90;;;;;;4972838;28;20263;-46
2022/05/22 06:11:32;;;;;;;3.00;2.07;;;22.60;99.90;;;;;;4971594;28;20630;-46
2022/05/22 06:13:59;;;;;;;2.37;2.17;;;22.80;99.90;;;;;;4968550;28;20232;-46
2022/05/22 06:16:27;;;;;;;2.87;2.47;;;23.50;99.90;;;;;;4970795;28;20204;-46
2022/05/22 06:18:54;;;;;;;4.73;2.93;;;23.40;99.90;;;;;;4972804;28;20207;-46
2022/05/22 06:21:22;;;;;;;2.47;2.40;;;22.60;99.90;;;;;;4971734;28;20224;-46
2022/05/22 06:23:50;;;;;;;2.33;2.10;;;22.80;99.90;;;;;;4964632;28;20232;-46
2022/05/22 06:26:19;;;;;;;2.87;2.70;;;22.90;99.90;;;;;;4972832;28;20224;-46
2022/05/22 06:28:47;;;;;;;3.00;2.80;;;23.40;99.90;;;;;;4972883;28;20243;-46
2022/05/22 06:31:15;;;;;;;2.30;2.30;;;23.30;99.90;;;;;;4971806;28;20204;-46
2022/05/22 06:33:42;;;;;;;2.57;2.07;;;23.60;99.90;;;;;;4972667;28;20252;-46
2022/05/22 06:36:10;;;;;;;2.90;2.67;;;24.10;99.90;;;;;;4972473;28;20652;-46
2022/05/22 06:41:23;;;;;;;5.20;4.90;;;24.70;99.90;;;;;;4971632;28;20230;-46
2022/05/22 06:43:51;;;;;;;5.53;5.03;;;24.60;99.90;;;;;;4964595;28;20197;-46
2022/05/22 06:46:19;;;;;;;6.37;5.77;;;24.00;99.90;;;;;;4973162;28;20232;-46
2022/05/22 06:48:46;;;;;;;5.47;5.17;;;24.00;99.90;;;;;;4991913;28;20258;-46
2022/05/22 06:51:13;;;;;;;5.13;4.93;;;24.30;99.90;;;;;;4989710;28;20203;-46
2022/05/22 06:53:40;;;;;;;6.07;5.53;;;24.60;99.90;;;;;;4972418;28;20208;-46
2022/05/22 06:56:07;;;;;;;5.43;5.13;;;25.00;99.90;;;;;;4971616;28;20228;-46
2022/05/22 06:58:36;;;;;;;6.47;5.87;;;25.50;99.90;;;;;;4971007;28;20204;-47
2022/05/22 07:01:03;;;;;;;6.77;6.17;;;25.50;99.90;;;;;;4972182;28;20761;-47
2022/05/22 07:03:30;;;;;;;5.47;5.07;;;25.50;99.90;;;;;;4963378;28;20634;-46
2022/05/22 07:05:57;;;;;;;6.17;5.67;;;25.70;99.90;;;;;;4971786;28;20769;-46
2022/05/22 07:08:24;;;;;;;4.93;4.63;;;25.60;99.90;;;;;;4973992;28;20690;-47
2022/05/22 07:13:36;;;;;;;6.37;5.80;;;25.60;99.90;;;;;;4963287;28;20271;-46
2022/05/22 07:16:05;;;;;;;5.63;5.20;;;25.00;99.90;;;;;;4971873;28;20228;-47
2022/05/22 07:18:33;;;;;;;6.97;6.47;;;25.30;99.90;;;;;;4972484;28;20209;-47
2022/05/22 07:21:00;;;;;;;6.50;6.00;;;25.40;99.90;;;;;;4973298;28;20667;-46
2022/05/22 07:23:27;;;;;;;6.67;6.07;;;25.10;99.90;;;;;;4963867;28;20205;-47
2022/05/22 07:25:54;;;;;;;7.00;6.40;;;25.10;99.90;;;;;;4975573;28;20717;-47
2022/05/22 07:28:21;;;;;;;7.13;6.63;;;25.10;99.90;;;;;;4975654;28;20213;-47
2022/05/22 07:30:50;;;;;;;6.28;5.68;;;25.30;99.90;;;;;;4974958;28;20442;-46
2022/05/22 07:33:18;;;;;;;5.57;5.00;;;25.90;99.90;;;;;;4973128;28;20283;-47
2022/05/22 07:35:54;;;;;;;5.18;4.93;;;26.20;99.90;;;;;;4986337;28;20303;-46
2022/05/22 07:38:22;;;;;;;5.53;5.03;;;26.60;99.90;;;;;;4975336;28;20686;-47
2022/05/22 07:40:49;;;;;;;5.43;5.18;;;26.90;99.90;;;;;;4975095;28;20205;-47
2022/05/22 07:43:17;;;;;;;5.55;5.15;;;26.90;99.90;;;;;;4966257;28;20200;-47
2022/05/22 07:45:44;;;;;;;5.47;5.07;;;26.40;99.90;;;;;;4975406;28;20272;-47
2022/05/22 07:48:13;;;;;;;6.55;5.97;;;26.60;99.90;;;;;;4977869;28;20267;-47
2022/05/22 07:50:40;;;;;;;5.85;5.55;;;26.40;99.90;;;;;;4978265;28;20761;-47
2022/05/22 07:53:08;;;;;;;5.00;4.70;;;26.00;99.90;;;;;;4977223;28;20609;-46
2022/05/22 07:55:35;;;;;;;6.32;5.90;;;25.80;99.90;;;;;;4973488;28;20225;-46
2022/05/22 07:58:02;;;;;;;5.80;5.32;;;25.40;99.90;;;;;;4973535;28;20208;-47
2022/05/22 08:00:29;;;;;;;6.70;6.30;;;24.90;99.90;;;;;;4974664;28;20687;-47
2022/05/22 08:02:56;;;;;;;6.15;5.55;;;24.50;99.90;;;;;;4969767;28;20257;-46
2022/05/22 08:05:25;;;;;;;7.77;5.70;;;24.60;99.90;;;;;;4973694;28;20793;-46
2022/05/22 08:07:52;;;;;;;5.33;4.87;;;24.20;99.90;;;;;;4973104;28;20745;-46
2022/05/22 08:10:20;;;;;;;6.40;5.90;;;24.00;99.90;;;;;;4974618;28;20192;-46
2022/05/22 08:12:49;;;;;;;6.87;6.33;;;23.90;99.90;;;;;;4965245;28;20201;-45
2022/05/22 08:15:19;;;;;;;11.90;7.00;;;23.60;99.90;;;;;;4973791;28;20217;-47
2022/05/22 08:17:46;;;;;;;5.90;5.70;;;23.40;99.90;;;;;;4972903;28;20211;-46
2022/05/22 08:20:16;;;;;;;6.00;5.57;;;23.10;99.90;;;;;;4974406;28;20204;-46
2022/05/22 08:22:46;;;;;;;7.43;6.77;;;23.00;99.90;;;;;;4969184;28;20224;-47
2022/05/22 08:25:15;;;;;;;6.30;5.90;;;22.90;99.90;;;;;;4974456;28;20227;-46
2022/05/22 08:27:42;;;;;;;7.83;7.07;;;22.90;99.90;;;;;;4973636;28;20677;-46
2022/05/22 08:30:11;;;;;;;7.10;5.63;;;22.80;99.90;;;;;;4971853;28;20208;-46
2022/05/22 08:32:39;;;;;;;4.20;4.00;;;22.70;99.90;;;;;;4971740;28;20247;-46
2022/05/22 08:35:07;;;;;;;4.10;3.77;;;22.80;99.90;;;;;;4972256;28;20279;-47
2022/05/22 08:37:34;;;;;;;4.23;3.83;;;22.60;99.90;;;;;;4973017;28;20208;-46
2022/05/22 08:40:04;;;;;;;4.10;3.90;;;22.10;99.90;;;;;;4973532;28;20212;-46
2022/05/22 08:42:40;;;;;;;7.03;3.43;;;21.70;99.90;;;;;;4968647;28;20235;-46
2022/05/22 08:45:15;;;;;;;3.73;3.53;;;21.50;99.90;;;;;;4973541;28;20270;-46
2022/05/22 08:47:55;;;;;;;4.53;4.23;;;21.40;99.90;;;;;;4971327;28;20207;-46
2022/05/22 08:50:23;;;;;;;3.70;3.60;;;21.20;99.90;;;;;;4973911;28;20266;-46
2022/05/22 08:52:55;;;;;;;3.70;3.60;;;21.20;99.90;;;;;;4972612;28;20200;-46
2022/05/22 08:58:55;;;;;;;3.73;3.50;;;21.10;99.90;;;;;;4969082;28;20287;-46
2022/05/22 09:01:07;;;;;;;5.60;4.47;;;21.10;99.90;;;;;;4963349;28;20275;-46
2022/05/22 09:03:41;;;;;;;4.37;4.07;;;21.00;99.90;;;;;;4969907;28;20231;-46
2022/05/22 09:06:09;;;;;;;5.40;4.87;;;21.00;99.90;;;;;;4978452;28;20224;-46
2022/05/22 09:08:42;;;;;;;5.83;4.60;;;20.90;99.90;;;;;;4973565;28;20690;-46
2022/05/22 09:11:17;;;;;;;4.43;4.20;;;20.60;99.90;;;;;;4973053;28;20732;-46
2022/05/22 09:13:51;;;;;;;5.13;4.63;;;20.50;99.90;;;;;;4967690;28;20278;-46
2022/05/22 09:16:24;;;;;;;4.67;4.40;;;20.40;99.90;;;;;;4969767;28;20216;-46
2022/05/22 09:18:58;;;;;;;5.03;4.07;;;20.30;99.90;;;;;;4972295;28;20205;-46
2022/05/22 09:21:32;;;;;;;5.33;4.90;;;21.00;99.90;;;;;;4972392;28;20208;-46
2022/05/22 09:24:02;;;;;;;5.77;5.40;;;21.30;99.90;;;;;;4972150;28;20314;-46
2022/05/22 09:26:45;;;;;;;5.47;5.03;;;21.00;99.90;;;;;;4972450;28;20733;-46
2022/05/22 09:29:37;;;;;;;4.27;4.07;;;21.00;99.90;;;;;;4970690;28;20571;-46
2022/05/22 09:32:13;;;;;;;5.30;4.93;;;21.10;99.90;;;;;;4972812;28;20201;-46
2022/05/22 09:34:46;;;;;;;5.00;4.73;;;21.30;99.90;;;;;;4970190;28;20340;-46
2022/05/22 09:37:28;;;;;;;8.33;5.13;;;21.40;99.90;;;;;;4971527;28;20741;-46
2022/05/22 09:40:07;;;;;;;4.93;4.73;;;21.60;99.90;;;;;;4969686;28;20205;-46
2022/05/22 09:42:48;;;;;;;5.93;5.67;;;21.60;99.90;;;;;;4970201;28;20216;-46
2022/05/22 09:45:37;;;;;;;5.70;4.60;;;21.40;99.90;;;;;;4973541;28;20302;-46
2022/05/22 09:48:26;;;;;;;5.20;4.80;;;21.00;99.90;;;;;;4971155;28;20279;-46
2022/05/22 09:51:02;;;;;;;5.10;4.90;;;21.10;99.90;;;;;;4972929;28;20196;-46
2022/05/22 09:53:42;;;;;;;5.73;5.43;;;21.40;99.90;;;;;;4970972;28;20683;-46
2022/05/22 09:56:21;;;;;;;6.03;5.63;;;21.40;99.90;;;;;;4972283;28;20274;-46
2022/05/22 09:59:04;;;;;;;6.83;6.23;;;21.70;99.90;;;;;;4973248;28;20208;-46
2022/05/22 10:01:34;;;;;;;12.00;6.97;;;21.70;99.90;;;;;;4970620;28;20212;-46
2022/05/22 10:04:15;;;;;;;5.87;5.57;;;21.70;99.90;;;;;;4968491;28;20260;-46
2022/05/22 10:06:51;;;;;;;6.33;5.93;;;22.00;99.90;;;;;;4970222;28;20292;-46
2022/05/22 10:09:28;;;;;;;6.20;5.80;;;22.00;99.90;;;;;;4969258;28;20729;-46
2022/05/22 10:12:07;;;;;;;9.30;6.07;;;22.20;99.90;;;;;;4969275;28;20197;-46
2022/05/22 10:14:49;;;;;;;8.07;7.30;;;22.30;99.90;;;;;;4964973;28;20295;-46
2022/05/22 10:17:28;;;;;;;7.60;6.90;;;22.30;99.90;;;;;;4973463;28;20693;-46
2022/05/22 10:20:07;;;;;;;6.77;6.37;;;22.40;99.90;;;;;;4971866;28;20604;-46
2022/05/22 10:22:50;;;;;;;7.43;6.93;;;22.30;99.90;;;;;;4969830;28;20215;-46
2022/05/22 10:25:30;;;;;;;6.87;6.23;;;22.60;99.90;;;;;;4971394;28;20282;-46
2022/05/22 10:28:02;;;;;;;6.73;6.33;;;23.20;99.90;;;;;;4972061;28;20208;-46
2022/05/22 10:30:36;;;;;;;6.43;6.00;;;23.50;99.90;;;;;;4970687;28;20287;-46
2022/05/22 10:33:09;;;;;;;6.83;6.33;;;23.60;99.90;;;;;;4969047;28;20193;-46
2022/05/22 10:35:45;;;;;;;7.37;6.70;;;23.80;99.90;;;;;;4970434;28;20224;-46
2022/05/22 10:38:17;;;;;;;6.67;6.17;;;24.00;99.90;;;;;;4971371;28;20223;-46
2022/05/22 10:43:35;;;;;;;4.67;4.47;;;23.80;99.90;;;;;;4970308;28;20239;-46
2022/05/22 10:46:04;;;;;;;7.07;6.50;;;23.60;99.90;;;;;;4971618;28;20240;-46
2022/05/22 10:48:33;;;;;;;6.03;5.60;;;23.60;99.90;;;;;;4972121;28;20200;-46
2022/05/22 10:51:05;;;;;;;5.83;5.53;;;23.50;99.90;;;;;;4972540;28;20200;-47
2022/05/22 10:53:35;;;;;;;6.87;6.27;;;23.50;99.90;;;;;;4972432;28;20200;-46
2022/05/22 10:56:05;;;;;;;32.27;27.03;;;23.30;99.90;;;;;;4972627;28;20233;-46
2022/05/22 10:58:36;;;;;;;11.70;10.60;;;23.10;99.90;;;;;;4971344;28;20235;-46
2022/05/22 11:01:07;;;;;;;9.80;8.80;;;23.00;99.90;;;;;;4984836;28;20526;-46
2022/05/22 11:03:36;;;;;;;7.40;6.90;;;23.10;99.90;;;;;;4972531;28;20275;-46
2022/05/22 11:06:15;;;;;;;5.57;5.27;;;23.30;99.90;;;;;;4977571;28;20229;-46
2022/05/22 11:08:48;;;;;;;6.87;6.20;;;23.80;99.90;;;;;;4974679;28;20300;-47
2022/05/22 11:11:18;;;;;;;4.77;4.47;;;23.60;99.90;;;;;;4974513;28;20201;-46
2022/05/22 11:13:45;;;;;;;5.83;5.33;;;23.90;99.90;;;;;;4973116;28;20204;-46
2022/05/22 11:16:17;;;;;;;9.77;7.70;;;24.30;99.90;;;;;;4975681;28;20771;-45
2022/05/22 11:18:44;;;;;;;6.27;5.87;;;23.90;99.90;;;;;;4969915;28;20622;-45
2022/05/22 11:21:22;;;;;;;6.30;5.97;;;23.50;99.90;;;;;;4981804;28;20254;-46
2022/05/22 11:24:06;;;;;;;6.87;5.90;;;23.40;99.90;;;;;;4984887;28;20633;-46
2022/05/22 11:26:42;;;;;;;6.50;5.90;;;23.20;99.90;;;;;;4974206;28;20205;-46
2022/05/22 11:29:25;;;;;;;6.57;6.07;;;23.50;99.90;;;;;;4976783;28;20260;-46
2022/05/22 11:32:00;;;;;;;6.67;5.53;;;23.80;99.90;;;;;;4970685;28;20201;-46
2022/05/22 11:34:51;;;;;;;5.37;5.00;;;24.00;99.90;;;;;;4970525;28;20222;-46
2022/05/22 11:37:29;;;;;;;5.13;4.93;;;23.80;99.90;;;;;;4976340;28;20266;-46
2022/05/22 11:40:08;;;;;;;5.50;5.20;;;24.00;99.90;;;;;;4977396;28;20200;-46
2022/05/22 11:42:37;;;;;;;6.13;5.60;;;23.90;99.90;;;;;;4973581;28;21014;-46
2022/05/22 11:45:18;;;;;;;5.73;5.30;;;23.80;99.90;;;;;;4977704;28;20244;-47
2022/05/22 11:48:13;;;;;;;5.93;5.53;;;24.10;99.90;;;;;;4977090;28;20428;-47
2022/05/22 11:50:50;;;;;;;5.73;5.17;;;24.50;99.90;;;;;;4962317;28;20203;-47
2022/05/22 11:53:55;;;;;;;5.37;5.07;;;24.80;99.90;;;;;;4974273;28;20244;-47
2022/05/22 11:56:32;;;;;;;5.63;5.23;;;24.90;99.90;;;;;;4919730;28;20230;-47
2022/05/22 11:59:09;;;;;;;4.97;4.77;;;24.80;99.90;;;;;;4975706;28;20570;-47
2022/05/22 12:01:41;;;;;;;6.90;6.30;;;25.00;99.90;;;;;;4973380;28;20200;-47
2022/05/22 12:04:38;;;;;;;6.43;6.03;;;24.70;99.90;;;;;;4973796;28;20283;-47
2022/05/22 12:07:25;;;;;;;6.47;6.03;;;24.70;99.90;;;;;;4973697;28;20196;-47
2022/05/22 12:10:02;;;;;;;6.10;5.57;;;24.90;99.90;;;;;;4972383;28;20251;-47
2022/05/22 12:12:38;;;;;;;6.47;5.97;;;25.00;99.90;;;;;;4967385;28;20200;-48
2022/05/22 12:15:18;;;;;;;6.30;6.07;;;24.90;99.90;;;;;;4972092;28;20319;-47
2022/05/22 12:17:51;;;;;;;7.87;7.30;;;24.60;99.90;;;;;;4973101;28;20200;-46
2022/05/22 12:20:23;;;;;;;9.07;5.77;;;24.40;99.90;;;;;;4973120;28;20211;-46
2022/05/22 12:23:12;;;;;;;7.70;6.90;;;24.40;99.90;;;;;;4972590;28;20228;-47
2022/05/22 12:25:45;;;;;;;9.77;8.83;;;24.50;99.90;;;;;;4971579;28;20228;-47
2022/05/22 12:28:37;;;;;;;8.33;7.57;;;24.70;99.90;;;;;;4968534;28;20205;-46
2022/05/22 12:31:09;;;;;;;6.33;5.93;;;24.50;99.90;;;;;;4972615;28;20255;-47
2022/05/22 12:33:38;;;;;;;7.17;6.53;;;24.70;99.90;;;;;;4971582;28;20200;-46
2022/05/22 12:36:09;;;;;;;8.30;7.60;;;24.50;99.90;;;;;;4972833;28;20216;-47
2022/05/22 12:38:45;;;;;;;10.17;9.30;;;24.70;99.90;;;;;;4970946;28;20679;-47
2022/05/22 12:41:25;;;;;;;9.77;8.87;;;24.90;99.90;;;;;;4965948;28;20655;-47
2022/05/22 12:43:56;;;;;;;6.87;6.40;;;25.10;99.90;;;;;;4971410;28;20228;-47
2022/05/22 12:46:25;;;;;;;6.63;6.10;;;25.00;99.90;;;;;;4972457;28;20711;-47
2022/05/22 12:49:04;;;;;;;6.90;6.33;;;25.20;99.90;;;;;;4970318;28;20729;-46
2022/05/22 12:51:35;;;;;;;6.80;6.33;;;24.90;99.90;;;;;;4971659;28;20208;-47
2022/05/22 12:54:10;;;;;;;6.53;6.13;;;24.70;99.90;;;;;;4971935;28;20201;-46
2022/05/22 12:56:42;;;;;;;7.73;7.07;;;24.70;99.90;;;;;;4972441;28;20219;-46
2022/05/22 12:59:23;;;;;;;7.17;6.57;;;24.60;99.90;;;;;;4970965;28;20311;-47
2022/05/22 13:01:52;;;;;;;6.80;6.27;;;24.70;99.90;;;;;;4970297;28;20883;-46
2022/05/22 13:04:32;;;;;;;7.10;6.63;;;24.50;99.90;;;;;;4967975;28;20631;-46
2022/05/22 13:07:04;;;;;;;7.10;6.70;;;24.40;99.90;;;;;;4969753;28;20259;-46
2022/05/22 13:09:44;;;;;;;6.70;6.10;;;24.50;99.90;;;;;;4971576;28;20220;-46
2022/05/22 13:12:28;;;;;;;6.27;5.83;;;24.60;99.90;;;;;;4970832;28;20218;-47
2022/05/22 13:14:58;;;;;;;9.50;5.90;;;24.60;99.90;;;;;;4970432;28;20278;-46
2022/05/22 13:17:35;;;;;;;7.33;6.73;;;24.70;99.90;;;;;;4971618;28;20212;-46
2022/05/22 13:20:04;;;;;;;6.80;6.33;;;24.70;99.90;;;;;;4971160;28;20200;-46
2022/05/22 13:22:36;;;;;;;6.73;6.30;;;24.60;99.90;;;;;;4970980;28;20201;-46
2022/05/22 13:25:07;;;;;;;6.27;5.87;;;24.80;99.90;;;;;;4971205;28;20270;-46